Great Dunmow, United Kingdom
Current Conditions -  °F | °C
As of 1:50 AM on Sunday 26 Oct 2014 (Local Time) from EGSS Reporting Station
Overcast Overcast  
Wind Chill: 12°   Ceiling: 3100
Heat Index: 12°   Visibility: 6mi
Dew Point:   Wind: 12mph
Humidity: 77%   Direction: 210°SSW
Pressure: 30.15"   Gusts: NA
Location:  51.87°N, 0.36°E
Report Text: EGSS 260050Z 21010KT 9999 OVC031 12/08 Q1021
Loading
Personal Weather Stations






























Interactive Weather Map
Tropical Storm Tracking
New forecast layout! Learn more

10-Day Weather Forecast

Advertisements
Track Severe Weather on mobile